Time;durP1;ratioP1;P1;durP2;ratioP2;P2;SDS_P1;SDS_P2;PMS_P1;PMS_P2;Temp;Humidity;BMP_temperature;BMP_pressure;BME280_temperature;BME280_humidity;BME280_pressure;Samples;Min_cycle;Max_cycle;Signal;HPM_P1;HPM_P2
2022/07/29 00:02:06;;;;;;;607.72;566.70;;;;;;;;;;5093556;28;20044;-60
2022/07/29 00:04:34;;;;;;;605.38;564.78;;;;;;;;;;5034649;28;20052;-60
2022/07/29 00:07:00;;;;;;;576.88;538.70;;;;;;;;;;5053138;28;20049;-60
2022/07/29 00:09:27;;;;;;;620.75;579.58;;;;;;;;;;5078425;28;20043;-60
2022/07/29 00:11:54;;;;;;;557.75;522.17;;;;;;;;;;5074818;28;20163;-60
2022/07/29 00:14:20;;;;;;;606.95;566.65;;;;;;;;;;5055293;28;20045;-60
2022/07/29 00:16:46;;;;;;;613.72;573.42;;;;;;;;;;5072031;28;20131;-60
2022/07/29 00:19:12;;;;;;;597.35;558.38;;;;;;;;;;5072104;28;20040;-60
2022/07/29 00:21:39;;;;;;;572.97;536.40;;;;;;;;;;5072470;28;20053;-60
2022/07/29 00:24:05;;;;;;;504.33;472.88;;;;;;;;;;5072347;28;20047;-60
2022/07/29 00:26:32;;;;;;;549.78;515.20;;;;;;;;;;5079846;28;20546;-60
2022/07/29 00:28:59;;;;;;;559.13;523.58;;;;;;;;;;5093052;28;20512;-60
2022/07/29 00:31:25;;;;;;;557.40;522.05;;;;;;;;;;5092456;28;20052;-60
2022/07/29 00:33:52;;;;;;;583.70;545.05;;;;;;;;;;5093202;28;20055;-60
2022/07/29 00:36:18;;;;;;;620.55;580.45;;;;;;;;;;5084259;28;20102;-60
2022/07/29 00:38:45;;;;;;;591.05;551.03;;;;;;;;;;5072342;28;20053;-60
2022/07/29 00:41:13;;;;;;;576.17;537.90;;;;;;;;;;5072840;28;20494;-60
2022/07/29 00:43:39;;;;;;;597.20;558.42;;;;;;;;;;5074446;28;20064;-60
2022/07/29 00:46:05;;;;;;;659.50;613.35;;;;;;;;;;5092467;28;20393;-60
2022/07/29 00:48:31;;;;;;;551.22;516.90;;;;;;;;;;5074823;28;20048;-60
2022/07/29 00:50:58;;;;;;;490.88;461.70;;;;;;;;;;5092460;28;20048;-60
2022/07/29 00:53:25;;;;;;;572.03;534.70;;;;;;;;;;5091719;28;20125;-60
2022/07/29 00:55:51;;;;;;;592.22;554.25;;;;;;;;;;5093026;28;20055;-60
2022/07/29 00:58:17;;;;;;;531.58;498.52;;;;;;;;;;5074098;28;20049;-60
2022/07/29 01:00:43;;;;;;;602.75;564.13;;;;;;;;;;5071734;28;20050;-60
2022/07/29 01:03:09;;;;;;;491.77;462.77;;;;;;;;;;5063461;28;20497;-60
2022/07/29 01:05:36;;;;;;;515.92;483.52;;;;;;;;;;5052054;28;20376;-60
2022/07/29 01:08:02;;;;;;;570.78;534.45;;;;;;;;;;5051939;28;20055;-60
2022/07/29 01:10:29;;;;;;;574.10;537.20;;;;;;;;;;5074654;28;20047;-60
2022/07/29 01:12:57;;;;;;;488.20;459.73;;;;;;;;;;5092701;28;20047;-60
2022/07/29 01:15:23;;;;;;;570.60;534.28;;;;;;;;;;5091815;28;20094;-60
2022/07/29 01:17:51;;;;;;;581.97;545.28;;;;;;;;;;5092797;28;20044;-60
2022/07/29 01:20:20;;;;;;;452.23;427.13;;;;;;;;;;5090915;28;20462;-60
2022/07/29 01:23:02;;;;;;;515.58;484.25;;;;;;;;;;5092688;28;20036;-60
2022/07/29 01:25:29;;;;;;;560.95;526.03;;;;;;;;;;5063132;28;20045;-60
2022/07/29 01:28:09;;;;;;;572.97;537.30;;;;;;;;;;5072403;28;20044;-60
2022/07/29 01:30:36;;;;;;;553.95;520.90;;;;;;;;;;5089169;28;20052;-60
2022/07/29 01:33:04;;;;;;;497.42;468.08;;;;;;;;;;5096636;28;20177;-60
2022/07/29 01:35:34;;;;;;;565.38;530.47;;;;;;;;;;5095536;28;20083;-60
2022/07/29 01:38:15;;;;;;;620.85;581.38;;;;;;;;;;5095804;28;20126;-60
2022/07/29 01:40:45;;;;;;;487.48;458.73;;;;;;;;;;5087494;28;20235;-60
2022/07/29 01:43:16;;;;;;;611.58;571.10;;;;;;;;;;5057082;28;20084;-60
2022/07/29 01:45:45;;;;;;;576.17;539.88;;;;;;;;;;5061319;28;20059;-60
2022/07/29 01:48:15;;;;;;;628.55;587.25;;;;;;;;;;5096299;28;20048;-60
2022/07/29 01:50:47;;;;;;;657.42;612.92;;;;;;;;;;5095219;28;20059;-60
2022/07/29 01:53:15;;;;;;;610.13;571.05;;;;;;;;;;5096287;28;20078;-60
2022/07/29 01:55:44;;;;;;;640.83;599.25;;;;;;;;;;5094977;28;20048;-60
2022/07/29 01:58:11;;;;;;;601.55;563.67;;;;;;;;;;5078222;28;20075;-60
2022/07/29 02:00:38;;;;;;;597.72;559.08;;;;;;;;;;5075744;28;20056;-60
2022/07/29 02:03:09;;;;;;;670.80;625.65;;;;;;;;;;5069119;28;20039;-60
2022/07/29 02:05:36;;;;;;;591.20;552.50;;;;;;;;;;5095821;28;20172;-60
2022/07/29 02:08:02;;;;;;;584.55;546.80;;;;;;;;;;5086387;28;20399;-60
2022/07/29 02:10:30;;;;;;;607.30;567.97;;;;;;;;;;5074868;28;20045;-60
2022/07/29 02:12:57;;;;;;;613.83;573.17;;;;;;;;;;5084438;28;20043;-60
2022/07/29 02:15:24;;;;;;;660.97;616.00;;;;;;;;;;5093213;28;20097;-60
2022/07/29 02:17:54;;;;;;;886.35;818.40;;;;;;;;;;5074548;28;20051;-60
2022/07/29 02:20:22;;;;;;;763.75;708.80;;;;;;;;;;5057019;28;20091;-60
2022/07/29 02:22:50;;;;;;;683.97;635.97;;;;;;;;;;5092560;28;20477;-60
2022/07/29 02:25:16;;;;;;;694.38;646.92;;;;;;;;;;5094981;28;20056;-60
2022/07/29 02:27:43;;;;;;;756.90;703.10;;;;;;;;;;5095391;28;20080;-60
2022/07/29 02:30:10;;;;;;;709.40;660.50;;;;;;;;;;5089593;28;20044;-60
2022/07/29 02:32:37;;;;;;;757.33;705.30;;;;;;;;;;5074654;28;20048;-60
2022/07/29 02:35:04;;;;;;;713.88;665.97;;;;;;;;;;5074681;28;20048;-60
2022/07/29 02:37:31;;;;;;;731.08;679.33;;;;;;;;;;5075294;28;20051;-60
2022/07/29 02:39:58;;;;;;;749.22;697.13;;;;;;;;;;5083480;28;20045;-60
2022/07/29 02:42:27;;;;;;;665.53;619.90;;;;;;;;;;5074597;28;20048;-60
2022/07/29 02:44:53;;;;;;;680.85;634.65;;;;;;;;;;5074047;28;20118;-60
2022/07/29 02:47:31;;;;;;;734.38;683.13;;;;;;;;;;5074674;28;20212;-60
2022/07/29 02:50:09;;;;;;;674.08;627.10;;;;;;;;;;5074891;28;20041;-60
2022/07/29 02:52:37;;;;;;;639.70;596.03;;;;;;;;;;5073133;28;20091;-60
2022/07/29 02:55:09;;;;;;;718.17;669.13;;;;;;;;;;5074994;28;20052;-60
2022/07/29 02:57:35;;;;;;;;;;;;;;;;;;5074472;28;20067;-60
2022/07/29 03:00:05;;;;;;;522.75;490.15;;;;;;;;;;5074071;28;19924;-60
2022/07/29 03:02:33;;;;;;;591.25;554.42;;;;;;;;;;5074399;28;20398;-60
2022/07/29 03:05:00;;;;;;;649.08;606.63;;;;;;;;;;5055828;28;20466;-60
2022/07/29 03:07:27;;;;;;;625.53;585.05;;;;;;;;;;5073857;28;20040;-60
2022/07/29 03:09:53;;;;;;;622.17;578.65;;;;;;;;;;5074684;28;20045;-60
2022/07/29 03:12:20;;;;;;;650.88;605.60;;;;;;;;;;5074095;28;20501;-60
2022/07/29 03:14:46;;;;;;;628.63;585.55;;;;;;;;;;5060489;28;20052;-60
2022/07/29 03:17:13;;;;;;;670.92;623.30;;;;;;;;;;5074459;28;20048;-60
2022/07/29 03:19:40;;;;;;;650.47;605.38;;;;;;;;;;5074114;28;20484;-60
2022/07/29 03:22:06;;;;;;;618.95;577.85;;;;;;;;;;5073512;28;20084;-60
2022/07/29 03:24:33;;;;;;;647.42;602.70;;;;;;;;;;5074106;28;20056;-60
2022/07/29 03:26:59;;;;;;;576.40;537.65;;;;;;;;;;5072908;28;20048;-60
2022/07/29 03:29:26;;;;;;;675.25;626.97;;;;;;;;;;5074469;28;20049;-60
2022/07/29 03:31:53;;;;;;;616.83;575.05;;;;;;;;;;5073506;28;20581;-60
2022/07/29 03:34:19;;;;;;;585.25;546.95;;;;;;;;;;5073028;28;20486;-60
2022/07/29 03:36:45;;;;;;;599.67;560.50;;;;;;;;;;5073956;28;20040;-60
2022/07/29 03:39:14;;;;;;;670.28;623.45;;;;;;;;;;5073862;28;20130;-60
2022/07/29 03:41:42;;;;;;;612.50;572.40;;;;;;;;;;5072002;28;20045;-60
2022/07/29 03:44:08;;;;;;;547.72;512.90;;;;;;;;;;5085072;28;20056;-60
2022/07/29 03:46:36;;;;;;;615.53;575.60;;;;;;;;;;5094149;28;20502;-60
2022/07/29 03:49:03;;;;;;;562.05;526.15;;;;;;;;;;5093145;28;20051;-60
2022/07/29 03:51:29;;;;;;;536.60;504.60;;;;;;;;;;5093497;28;20473;-60
2022/07/29 03:53:55;;;;;;;522.60;490.23;;;;;;;;;;5093806;28;20058;-59
2022/07/29 03:56:22;;;;;;;545.53;511.98;;;;;;;;;;5082836;28;20109;-60
2022/07/29 03:58:50;;;;;;;468.98;441.35;;;;;;;;;;5093274;28;20046;-60
2022/07/29 04:01:17;;;;;;;468.52;442.17;;;;;;;;;;5093708;28;20036;-60
2022/07/29 04:03:45;;;;;;;600.60;561.78;;;;;;;;;;5079219;28;20080;-60
2022/07/29 04:06:11;;;;;;;539.58;505.50;;;;;;;;;;5073305;28;20048;-60
2022/07/29 04:08:37;;;;;;;538.75;506.85;;;;;;;;;;5088075;28;20094;-60
2022/07/29 04:11:04;;;;;;;512.75;482.35;;;;;;;;;;5092605;28;20048;-60
2022/07/29 04:13:30;;;;;;;547.78;514.58;;;;;;;;;;5093790;28;20055;-60
2022/07/29 04:15:57;;;;;;;564.17;528.88;;;;;;;;;;5093007;28;20051;-60
2022/07/29 04:18:23;;;;;;;564.70;529.47;;;;;;;;;;5092456;28;20397;-60
2022/07/29 04:20:49;;;;;;;542.10;509.48;;;;;;;;;;5093554;28;20051;-60
2022/07/29 04:23:15;;;;;;;533.15;500.65;;;;;;;;;;5092495;28;20044;-60
2022/07/29 04:25:42;;;;;;;548.72;513.78;;;;;;;;;;5092599;28;20043;-60
2022/07/29 04:28:08;;;;;;;548.92;515.20;;;;;;;;;;5075037;28;20245;-60
2022/07/29 04:30:35;;;;;;;545.90;511.85;;;;;;;;;;5074336;28;20056;-60
2022/07/29 04:33:02;;;;;;;508.17;477.35;;;;;;;;;;5093160;28;20087;-60
2022/07/29 04:35:29;;;;;;;578.90;541.47;;;;;;;;;;5074979;28;20037;-60
2022/07/29 04:37:55;;;;;;;508.67;478.40;;;;;;;;;;5071975;28;20048;-60
2022/07/29 04:40:21;;;;;;;506.30;476.40;;;;;;;;;;5072445;28;20116;-60
2022/07/29 04:42:48;;;;;;;545.58;511.50;;;;;;;;;;5077132;28;20040;-60
2022/07/29 04:45:14;;;;;;;588.75;552.03;;;;;;;;;;5083487;28;20461;-60
2022/07/29 04:47:41;;;;;;;617.53;577.95;;;;;;;;;;5072477;28;20090;-60
2022/07/29 04:50:08;;;;;;;532.25;500.10;;;;;;;;;;5072813;28;20049;-60
2022/07/29 04:52:35;;;;;;;505.20;475.35;;;;;;;;;;5083940;28;20105;-60
2022/07/29 04:55:01;;;;;;;641.95;600.53;;;;;;;;;;5092822;28;20413;-60
2022/07/29 04:57:27;;;;;;;642.38;600.58;;;;;;;;;;5076555;28;20128;-60
2022/07/29 04:59:54;;;;;;;624.10;583.65;;;;;;;;;;5073723;28;20471;-60
2022/07/29 05:02:20;;;;;;;538.75;505.65;;;;;;;;;;5091829;28;20462;-60
2022/07/29 05:04:46;;;;;;;596.58;558.78;;;;;;;;;;5079105;28;20552;-60
2022/07/29 05:07:12;;;;;;;548.90;515.35;;;;;;;;;;5078514;28;20044;-60
2022/07/29 05:09:38;;;;;;;582.97;546.58;;;;;;;;;;5085972;28;20421;-60
2022/07/29 05:12:04;;;;;;;593.47;556.00;;;;;;;;;;5099694;28;20393;-60
2022/07/29 05:14:31;;;;;;;639.40;598.55;;;;;;;;;;5099016;28;20148;-60
2022/07/29 05:16:57;;;;;;;556.42;522.72;;;;;;;;;;5099218;28;20071;-60
2022/07/29 05:19:23;;;;;;;559.17;524.22;;;;;;;;;;5097933;28;20489;-60
2022/07/29 05:21:50;;;;;;;581.40;544.85;;;;;;;;;;5099596;28;20064;-60
2022/07/29 05:24:16;;;;;;;567.08;531.55;;;;;;;;;;5099379;28;20039;-60
2022/07/29 05:26:42;;;;;;;627.13;585.65;;;;;;;;;;5098214;28;20059;-60
2022/07/29 05:29:09;;;;;;;574.28;537.90;;;;;;;;;;5082477;28;20040;-60
2022/07/29 05:31:35;;;;;;;619.75;580.83;;;;;;;;;;5073722;28;20056;-60
2022/07/29 05:34:01;;;;;;;663.80;620.45;;;;;;;;;;5071010;28;20040;-60
2022/07/29 05:36:27;;;;;;;564.10;529.17;;;;;;;;;;5073907;28;20052;-60
2022/07/29 05:38:53;;;;;;;659.80;615.50;;;;;;;;;;5070835;28;20048;-60
2022/07/29 05:41:20;;;;;;;618.40;578.28;;;;;;;;;;5076763;28;20036;-60
2022/07/29 05:43:46;;;;;;;569.83;534.60;;;;;;;;;;5064664;28;20517;-60
2022/07/29 05:46:13;;;;;;;544.42;511.30;;;;;;;;;;5072030;28;20053;-60
2022/07/29 05:48:40;;;;;;;611.90;573.50;;;;;;;;;;5036683;28;20052;-60
2022/07/29 05:51:06;;;;;;;579.28;543.63;;;;;;;;;;5058079;28;20059;-60
2022/07/29 05:53:33;;;;;;;627.97;587.55;;;;;;;;;;5057283;28;20390;-61
2022/07/29 05:56:03;;;;;;;608.25;570.63;;;;;;;;;;5057084;28;20552;-61
2022/07/29 05:58:29;;;;;;;542.10;509.35;;;;;;;;;;5078338;28;20059;-61
2022/07/29 06:00:58;;;;;;;647.10;604.85;;;;;;;;;;5078629;28;20119;-61
2022/07/29 06:03:25;;;;;;;584.42;548.50;;;;;;;;;;5049205;28;20049;-61
2022/07/29 06:05:51;;;;;;;603.63;564.20;;;;;;;;;;5038921;28;20049;-60
2022/07/29 06:08:18;;;;;;;627.15;586.60;;;;;;;;;;5038601;28;20046;-61
2022/07/29 06:10:45;;;;;;;563.22;528.60;;;;;;;;;;5038172;28;20041;-61
2022/07/29 06:13:11;;;;;;;637.70;596.05;;;;;;;;;;5078803;28;20048;-61
2022/07/29 06:15:37;;;;;;;583.55;547.42;;;;;;;;;;5073274;28;20048;-60
2022/07/29 06:18:08;;;;;;;600.78;563.28;;;;;;;;;;5075593;28;20052;-60
2022/07/29 06:20:35;;;;;;;591.85;555.60;;;;;;;;;;5075236;28;20048;-60
2022/07/29 06:23:04;;;;;;;583.67;547.58;;;;;;;;;;5074300;28;20510;-60
2022/07/29 06:25:32;;;;;;;619.78;580.25;;;;;;;;;;5063521;28;20531;-61
2022/07/29 06:27:58;;;;;;;637.92;597.10;;;;;;;;;;5055438;28;20056;-61
2022/07/29 06:30:24;;;;;;;632.10;591.70;;;;;;;;;;5069816;28;20044;-60
2022/07/29 06:32:50;;;;;;;682.55;637.88;;;;;;;;;;5075337;28;20071;-60
2022/07/29 06:35:16;;;;;;;672.33;628.38;;;;;;;;;;5057103;28;20167;-60
2022/07/29 06:37:42;;;;;;;654.35;611.13;;;;;;;;;;5073685;28;20059;-61
2022/07/29 06:42:54;;;;;;;659.60;617.08;;;;;;;;;;5055505;28;20075;-61
2022/07/29 06:45:20;;;;;;;622.42;582.25;;;;;;;;;;5074126;28;20045;-60
2022/07/29 06:47:46;;;;;;;619.97;579.95;;;;;;;;;;5074601;28;20056;-61
2022/07/29 06:50:13;;;;;;;656.25;613.72;;;;;;;;;;5074866;28;20044;-61
2022/07/29 06:52:40;;;;;;;624.92;585.08;;;;;;;;;;5073097;28;20047;-61
2022/07/29 06:55:07;;;;;;;638.00;597.17;;;;;;;;;;5074012;28;20040;-61
2022/07/29 06:57:34;;;;;;;652.70;610.42;;;;;;;;;;5074108;28;20057;-61
2022/07/29 07:00:00;;;;;;;594.10;557.97;;;;;;;;;;5071485;28;20402;-60
2022/07/29 07:02:26;;;;;;;712.42;663.05;;;;;;;;;;5053671;28;20105;-61
2022/07/29 07:04:53;;;;;;;728.75;679.55;;;;;;;;;;5062696;28;20053;-60
2022/07/29 07:07:19;;;;;;;664.40;620.33;;;;;;;;;;5074435;28;20049;-61
2022/07/29 07:09:45;;;;;;;668.00;624.97;;;;;;;;;;5074474;28;20070;-61
2022/07/29 07:12:11;;;;;;;714.85;667.38;;;;;;;;;;5073860;28;20048;-61
2022/07/29 07:14:37;;;;;;;694.67;648.15;;;;;;;;;;5064773;28;20084;-60
2022/07/29 07:17:04;;;;;;;663.50;620.67;;;;;;;;;;5074152;28;20053;-61
2022/07/29 07:19:30;;;;;;;713.45;665.55;;;;;;;;;;5073245;28;20044;-60
2022/07/29 07:21:56;;;;;;;714.83;666.88;;;;;;;;;;5073585;28;20041;-60
2022/07/29 07:24:22;;;;;;;716.78;668.70;;;;;;;;;;5073798;28;20049;-61
2022/07/29 07:26:48;;;;;;;663.58;620.90;;;;;;;;;;5063257;28;20048;-61
2022/07/29 07:29:15;;;;;;;645.00;603.80;;;;;;;;;;5062126;28;20190;-60
2022/07/29 07:31:41;;;;;;;707.20;661.20;;;;;;;;;;5064450;28;20047;-61
2022/07/29 07:34:07;;;;;;;697.33;651.67;;;;;;;;;;5072949;28;20048;-61
2022/07/29 07:36:34;;;;;;;696.83;651.45;;;;;;;;;;5071238;28;20050;-61
2022/07/29 07:39:00;;;;;;;720.42;672.28;;;;;;;;;;5062902;28;20056;-61
2022/07/29 07:41:26;;;;;;;664.35;620.65;;;;;;;;;;5072324;28;20044;-61
2022/07/29 07:43:53;;;;;;;631.38;591.40;;;;;;;;;;5073656;28;20052;-60
2022/07/29 07:46:19;;;;;;;736.05;686.03;;;;;;;;;;5073417;28;20051;-61
2022/07/29 07:48:45;;;;;;;637.85;598.28;;;;;;;;;;5072469;28;20040;-61
2022/07/29 07:51:11;;;;;;;628.35;589.03;;;;;;;;;;5073434;28;20398;-60
2022/07/29 07:53:37;;;;;;;635.50;596.35;;;18.80;99.90;;;;;;5072970;28;20105;-61
2022/07/29 07:56:04;;;;;;;689.75;644.42;;;18.90;99.90;;;;;;5073076;28;20048;-61
2022/07/29 07:58:30;;;;;;;681.28;636.78;;;18.90;99.90;;;;;;5073243;28;20045;-61
2022/07/29 08:00:56;;;;;;;597.88;561.72;;;19.00;99.90;;;;;;5053365;28;20056;-61
2022/07/29 08:03:21;;;;;;;586.30;550.95;;;19.40;99.90;;;;;;5062974;28;20039;-61
2022/07/29 08:05:48;;;;;;;617.05;578.92;;;19.10;99.90;;;;;;5055249;28;20074;-61
2022/07/29 08:08:13;;;;;;;585.78;551.00;;;19.20;99.90;;;;;;5052266;28;20073;-61
2022/07/29 08:10:52;;;;;;;650.60;610.10;;;19.30;99.90;;;;;;5053613;28;20450;-61
2022/07/29 08:13:20;;;;;;;640.88;600.90;;;19.30;99.90;;;;;;5053374;28;20037;-61
2022/07/29 08:15:46;;;;;;;540.55;508.08;;;19.30;99.90;;;;;;5049779;28;20450;-61
2022/07/29 08:18:13;;;;;;;632.80;593.05;;;19.40;99.90;;;;;;5073180;28;20128;-61
2022/07/29 08:20:40;;;;;;;619.22;581.20;;;19.50;99.90;;;;;;5073126;28;20094;-61
2022/07/29 08:23:08;;;;;;;564.20;530.20;;;19.60;99.90;;;;;;5071739;28;20067;-61
2022/07/29 08:25:36;;;;;;;549.60;517.33;;;19.70;99.90;;;;;;5072901;28;20056;-61
2022/07/29 08:28:02;;;;;;;540.00;508.13;;;19.80;99.90;;;;;;5054866;28;20117;-61
2022/07/29 08:30:28;;;;;;;566.60;532.60;;;19.80;99.90;;;;;;5072028;28;20068;-61
2022/07/29 08:32:54;;;;;;;664.30;621.65;;;19.90;99.90;;;;;;5072908;28;20137;-61
2022/07/29 08:35:21;;;;;;;540.35;508.80;;;20.00;99.90;;;;;;5072790;28;20236;-61
2022/07/29 08:37:47;;;;;;;492.88;464.88;;;20.00;99.90;;;;;;5071183;28;20127;-60
2022/07/29 08:40:15;;;;;;;529.90;498.52;;;20.20;99.90;;;;;;5072852;28;20051;-61
2022/07/29 08:42:40;;;;;;;552.40;520.38;;;20.30;99.90;;;;;;5072596;28;20127;-61
2022/07/29 08:45:07;;;;;;;606.65;569.75;;;20.40;99.90;;;;;;5071639;28;20194;-61
2022/07/29 08:47:33;;;;;;;605.72;568.35;;;20.50;99.90;;;;;;5073026;28;20041;-61
2022/07/29 08:49:59;;;;;;;522.53;492.95;;;20.60;99.90;;;;;;5073063;28;20036;-61
2022/07/29 08:52:26;;;;;;;609.00;570.72;;;20.80;99.90;;;;;;5071566;28;20119;-61
2022/07/29 08:54:53;;;;;;;534.17;503.38;;;20.80;99.90;;;;;;5072595;28;20041;-61
2022/07/29 08:57:20;;;;;;;628.33;589.47;;;20.90;99.90;;;;;;5072312;28;20051;-61
2022/07/29 08:59:49;;;;;;;610.00;572.83;;;21.00;99.90;;;;;;5071745;28;20052;-61
2022/07/29 09:02:20;;;;;;;537.17;506.23;;;21.00;99.90;;;;;;5071891;28;20467;-61
2022/07/29 09:04:47;;;;;;;598.20;562.22;;;21.10;99.90;;;;;;5065395;28;20037;-61
2022/07/29 09:07:16;;;;;;;535.03;504.88;;;21.10;99.90;;;;;;5071936;28;20045;-60
2022/07/29 09:09:42;;;;;;;592.35;557.33;;;21.10;99.90;;;;;;5071796;28;20041;-60
2022/07/29 09:12:11;;;;;;;625.13;587.47;;;21.10;99.90;;;;;;5071230;28;20053;-60
2022/07/29 09:14:39;;;;;;;554.53;522.03;;;21.20;99.90;;;;;;5072150;28;20052;-61
2022/07/29 09:17:05;;;;;;;515.67;487.40;;;21.10;99.90;;;;;;5071141;28;20049;-61
2022/07/29 09:19:35;;;;;;;586.40;551.75;;;21.10;99.90;;;;;;5071288;28;20044;-61
2022/07/29 09:22:04;;;;;;;539.72;509.83;;;21.10;99.90;;;;;;5069004;28;20033;-61
2022/07/29 09:24:34;;;;;;;594.28;559.10;;;21.00;99.90;;;;;;5072413;28;20056;-61
2022/07/29 09:27:01;;;;;;;578.55;545.15;;;21.10;99.90;;;;;;5070828;28;20048;-61
2022/07/29 09:29:27;;;;;;;581.90;547.60;;;21.10;99.90;;;;;;5053981;28;20057;-61
2022/07/29 09:31:55;;;;;;;575.03;541.08;;;21.10;99.90;;;;;;5072462;28;20119;-61
2022/07/29 09:34:25;;;;;;;639.47;599.83;;;21.10;99.90;;;;;;5070934;28;20040;-61
2022/07/29 09:36:52;;;;;;;582.33;548.30;;;21.20;99.90;;;;;;5068354;28;20521;-61
2022/07/29 09:39:30;;;;;;;690.70;646.85;;;21.20;99.90;;;;;;5071134;28;20032;-61
2022/07/29 09:41:58;;;;;;;647.80;608.13;;;21.10;99.90;;;;;;5070115;28;20044;-61
2022/07/29 09:44:25;;;;;;;573.15;539.42;;;21.20;99.90;;;;;;5081850;28;20458;-61
2022/07/29 09:47:08;;;;;;;669.25;627.00;;;21.20;99.90;;;;;;5091860;28;20059;-61
2022/07/29 09:49:49;;;;;;;583.35;549.25;;;21.20;99.90;;;;;;5094962;28;20499;-61
2022/07/29 09:52:15;;;;;;;685.80;640.83;;;21.20;99.90;;;;;;5060335;28;20056;-61
2022/07/29 09:54:40;;;;;;;602.88;566.90;;;21.20;99.90;;;;;;5087963;28;20397;-61
2022/07/29 09:57:12;;;;;;;618.67;579.13;;;21.10;99.90;;;;;;5075352;28;20406;-61
2022/07/29 09:59:38;;;;;;;542.65;510.77;;;21.10;99.90;;;;;;5075309;28;20051;-61
2022/07/29 10:02:12;;;;;;;680.22;636.10;;;21.10;99.90;;;;;;5074942;28;20043;-61
2022/07/29 10:04:40;;;;;;;682.58;637.22;;;21.10;99.90;;;;;;5073999;28;20084;-61
2022/07/29 10:07:06;;;;;;;836.97;775.13;;;21.10;99.90;;;;;;5072300;28;20482;-61
2022/07/29 10:09:33;;;;;;;644.45;604.38;;;21.10;99.90;;;;;;5056707;28;20135;-61
2022/07/29 10:12:13;;;;;;;657.75;616.08;;;21.10;99.90;;;;;;5079003;28;20037;-61
2022/07/29 10:14:39;;;;;;;639.15;599.17;;;21.20;99.90;;;;;;5072464;28;20150;-61
2022/07/29 10:17:07;;;;;;;748.90;698.13;;;21.30;99.90;;;;;;5074730;28;20050;-61
2022/07/29 10:19:34;;;;;;;634.35;595.92;;;21.40;99.90;;;;;;5083220;28;20123;-61
2022/07/29 10:22:03;;;;;;;671.03;628.90;;;21.50;99.90;;;;;;5094435;28;20047;-61
2022/07/29 10:24:31;;;;;;;568.95;536.10;;;21.70;99.90;;;;;;5095264;28;20044;-61
2022/07/29 10:26:58;;;;;;;606.63;570.30;;;21.80;99.90;;;;;;5095518;28;20478;-61
2022/07/29 10:29:25;;;;;;;596.47;561.40;;;22.00;99.80;;;;;;5093814;28;20430;-61
2022/07/29 10:32:09;;;;;;;618.05;579.70;;;22.20;99.50;;;;;;5094448;28;20121;-61
2022/07/29 10:35:11;;;;;;;535.05;505.00;;;22.30;99.50;;;;;;5074823;28;20398;-61
2022/07/29 10:37:55;;;;;;;632.05;593.42;;;22.40;99.10;;;;;;5085609;28;20085;-61
2022/07/29 10:43:23;;;;;;;565.53;533.22;;;22.40;98.60;;;;;;5073829;28;20057;-61
2022/07/29 10:45:55;;;;;;;578.45;545.50;;;22.40;98.50;;;;;;5074755;28;20041;-61
2022/07/29 10:48:21;;;;;;;587.65;553.13;;;22.50;98.40;;;;;;5075195;28;20052;-61
2022/07/29 10:50:58;;;;;;;574.03;541.35;;;22.60;98.30;;;;;;5073932;28;20555;-61
2022/07/29 10:53:44;;;;;;;625.78;587.88;;;22.70;97.90;;;;;;5075041;28;20444;-61
2022/07/29 10:56:26;;;;;;;639.15;600.42;;;22.80;98.00;;;;;;5073681;28;20479;-61
2022/07/29 10:59:17;;;;;;;595.03;560.03;;;22.90;97.70;;;;;;5072461;28;20063;-61
2022/07/29 11:01:44;;;;;;;651.63;611.28;;;23.00;97.60;;;;;;5073831;28;20668;-61
2022/07/29 11:04:10;;;;;;;646.20;607.00;;;23.10;97.40;;;;;;5072942;28;20059;-61
2022/07/29 11:07:09;;;;;;;675.33;633.65;;;23.10;97.10;;;;;;5056611;28;20514;-61
2022/07/29 11:09:35;;;;;;;607.83;571.88;;;23.20;96.20;;;;;;5074252;28;20044;-61
2022/07/29 11:12:01;;;;;;;662.80;621.78;;;23.20;96.90;;;;;;5073090;28;20411;-61
2022/07/29 11:14:51;;;;;;;618.17;581.58;;;23.20;97.00;;;;;;5073342;28;20048;-61
2022/07/29 11:17:18;;;;;;;653.38;614.10;;;23.40;97.20;;;;;;5069791;28;20052;-61
2022/07/29 11:19:44;;;;;;;659.67;619.42;;;23.50;96.80;;;;;;5073144;28;20072;-61
2022/07/29 11:22:11;;;;;;;630.65;592.60;;;23.60;96.50;;;;;;5073056;28;20422;-61
2022/07/29 11:24:37;;;;;;;628.72;591.08;;;23.60;96.50;;;;;;5074122;28;20047;-61
2022/07/29 11:27:07;;;;;;;669.17;628.30;;;23.60;96.50;;;;;;5073111;28;20044;-61
2022/07/29 11:29:39;;;;;;;640.53;601.72;;;23.70;96.40;;;;;;5073618;28;20076;-61
2022/07/29 11:32:14;;;;;;;616.00;579.47;;;23.80;96.60;;;;;;5073863;28;20119;-61
2022/07/29 11:34:41;;;;;;;627.53;589.50;;;23.90;96.40;;;;;;5073695;28;20098;-61
2022/07/29 11:37:08;;;;;;;636.83;597.67;;;24.00;96.10;;;;;;5074163;28;20049;-61
2022/07/29 11:39:42;;;;;;;597.13;561.13;;;24.10;95.80;;;;;;5072852;28;20119;-61
2022/07/29 11:42:20;;;;;;;582.33;547.33;;;24.10;95.30;;;;;;5053424;28;20055;-61
2022/07/29 11:45:01;;;;;;;725.38;677.45;;;24.10;94.90;;;;;;5053716;28;20052;-61
2022/07/29 11:47:29;;;;;;;542.63;511.73;;;24.20;95.60;;;;;;5039680;28;20052;-61
2022/07/29 11:49:57;;;;;;;652.72;612.15;;;24.50;96.40;;;;;;5073380;28;20041;-61
2022/07/29 11:52:23;;;;;;;733.30;685.60;;;24.30;95.10;;;;;;5073816;28;20470;-62
2022/07/29 11:54:50;;;;;;;648.78;608.65;;;24.50;95.50;;;;;;5072748;28;20048;-61
2022/07/29 11:57:18;;;;;;;713.10;667.35;;;24.40;94.90;;;;;;5072644;28;20048;-61
2022/07/29 11:59:46;;;;;;;695.65;652.08;;;24.50;94.90;;;;;;5073708;28;20044;-61
2022/07/29 12:02:12;;;;;;;700.13;655.47;;;24.50;94.40;;;;;;5072059;28;20052;-61
2022/07/29 12:04:49;;;;;;;663.20;622.78;;;24.60;94.50;;;;;;5035032;28;20067;-61
2022/07/29 12:07:16;;;;;;;646.15;607.33;;;24.70;94.70;;;;;;5053083;28;20041;-61
2022/07/29 12:09:56;;;;;;;664.20;623.05;;;24.80;94.50;;;;;;5053321;28;20041;-61
2022/07/29 12:12:22;;;;;;;624.97;587.95;;;24.70;94.20;;;;;;5055709;28;20561;-61
2022/07/29 12:14:49;;;;;;;649.63;610.55;;;24.80;94.20;;;;;;5061527;28;20483;-61
2022/07/29 12:17:29;;;;;;;676.22;634.65;;;24.90;94.30;;;;;;5073210;28;20084;-61
2022/07/29 12:19:56;;;;;;;648.75;609.90;;;25.00;94.50;;;;;;5073105;28;20051;-61
2022/07/29 12:22:32;;;;;;;605.78;571.08;;;25.10;94.10;;;;;;5071903;28;20044;-61
2022/07/29 12:25:09;;;;;;;627.63;590.95;;;25.20;93.70;;;;;;5035456;28;20041;-61
2022/07/29 12:27:38;;;;;;;672.13;630.63;;;;;;;;;;5052824;28;20099;-61
2022/07/29 12:30:09;;;;;;;656.92;617.47;;;;;;;;;;5052466;28;20103;-61
2022/07/29 12:32:39;;;;;;;651.03;612.60;;;;;;;;;;5054519;28;20092;-61
2022/07/29 12:35:07;;;;;;;650.80;611.50;;;25.80;99.90;;;;;;5071214;28;20048;-61
2022/07/29 12:37:36;;;;;;;630.88;593.90;;;25.90;99.90;;;;;;5072356;28;20419;-61
2022/07/29 12:40:04;;;;;;;618.85;583.08;;;;;;;;;;5072319;28;20473;-61
2022/07/29 12:42:31;;;;;;;690.97;647.85;;;;;;;;;;5071752;28;20048;-61
2022/07/29 12:44:59;;;;;;;673.47;632.90;;;;;;;;;;5072616;28;20057;-61
2022/07/29 12:47:25;;;;;;;662.03;622.13;;;26.10;99.90;;;;;;5072918;28;20119;-61
2022/07/29 12:50:06;;;;;;;621.92;585.60;;;26.30;94.00;;;;;;5071574;28;20546;-61
2022/07/29 12:52:34;;;;;;;659.47;620.08;;;26.20;92.20;;;;;;5072623;28;20119;-61
2022/07/29 12:55:00;;;;;;;598.30;564.40;;;26.10;92.20;;;;;;5054910;28;20087;-61
2022/07/29 12:57:27;;;;;;;596.47;562.78;;;26.10;92.60;;;;;;5071856;28;20459;-62
2022/07/29 13:00:03;;;;;;;612.03;576.83;;;26.00;92.70;;;;;;5072473;28;20379;-61
2022/07/29 13:02:29;;;;;;;614.83;579.47;;;25.80;92.90;;;;;;5068933;28;20076;-61
2022/07/29 13:04:57;;;;;;;631.33;594.53;;;25.60;92.90;;;;;;5051847;28;20477;-61
2022/07/29 13:07:28;;;;;;;624.28;587.60;;;25.40;92.80;;;;;;5059224;28;20470;-61
2022/07/29 13:09:54;;;;;;;605.15;570.70;;;25.30;93.10;;;;;;5072432;28;20036;-61
2022/07/29 13:12:20;;;;;;;655.58;616.28;;;25.10;93.00;;;;;;5071690;28;20468;-61
2022/07/29 13:14:48;;;;;;;647.53;609.22;;;25.00;93.40;;;;;;5071517;28;20118;-61
2022/07/29 13:17:17;;;;;;;675.80;634.50;;;25.00;93.50;;;;;;5059505;28;20085;-61
2022/07/29 13:19:51;;;;;;;673.65;633.10;;;25.00;93.70;;;;;;5051379;28;20376;-61
2022/07/29 13:22:20;;;;;;;696.50;653.08;;;25.00;94.00;;;;;;5052147;28;20049;-61